Time;durP1;ratioP1;P1;durP2;ratioP2;P2;SDS_P1;SDS_P2;PMS_P1;PMS_P2;Temp;Humidity;BMP_temperature;BMP_pressure;BME280_temperature;BME280_humidity;BME280_pressure;Samples;Min_cycle;Max_cycle;Signal;HPM_P1;HPM_P2
2023/06/19 00:01:48;;;;;;;0.25;0.25;;;20.60;99.90;;;;;;5072498;28;20048;-75
2023/06/19 00:04:14;;;;;;;0.30;0.30;;;20.60;99.90;;;;;;5072243;28;20072;-75
2023/06/19 00:06:39;;;;;;;;;;;20.60;99.90;;;;;;5090078;28;20101;-74
2023/06/19 00:09:06;;;;;;;0.28;0.28;;;20.70;99.90;;;;;;5088711;28;19930;-74
2023/06/19 00:11:32;;;;;;;0.40;0.40;;;20.50;99.90;;;;;;5089271;28;20075;-75
2023/06/19 00:13:58;;;;;;;0.28;0.28;;;20.50;99.90;;;;;;5088873;28;20079;-75
2023/06/19 00:16:25;;;;;;;0.40;0.40;;;20.50;99.90;;;;;;5072367;28;20036;-75
2023/06/19 00:18:51;;;;;;;0.50;0.50;;;20.40;99.90;;;;;;5089062;28;20048;-75
2023/06/19 00:21:17;;;;;;;1.05;1.05;;;20.60;99.90;;;;;;5089102;28;20128;-75
2023/06/19 00:23:43;;;;;;;0.52;0.52;;;20.40;99.90;;;;;;5089080;28;20122;-75
2023/06/19 00:26:08;;;;;;;0.20;0.20;;;20.50;99.90;;;;;;5088647;28;20055;-76
2023/06/19 00:28:34;;;;;;;0.17;0.17;;;20.70;99.90;;;;;;5122855;27;20043;-75
2023/06/19 00:31:00;;;;;;;0.73;0.73;;;20.60;99.90;;;;;;5088694;28;20093;-74
2023/06/19 00:33:25;;;;;;;0.30;0.30;;;20.60;99.90;;;;;;5072332;28;20047;-75
2023/06/19 00:35:51;;;;;;;0.38;0.38;;;20.80;99.90;;;;;;5088669;28;20050;-75
2023/06/19 00:38:17;;;;;;;0.30;0.30;;;20.90;99.90;;;;;;5088429;28;20086;-75
2023/06/19 00:40:43;;;;;;;0.63;0.63;;;20.70;99.90;;;;;;5072092;28;20126;-74
2023/06/19 00:43:09;;;;;;;0.47;0.35;;;20.90;99.90;;;;;;5054851;28;20123;-75
2023/06/19 00:45:36;;;;;;;0.50;0.50;;;20.70;99.90;;;;;;5087937;28;20036;-77
2023/06/19 00:48:03;;;;;;;0.60;0.43;;;20.90;99.90;;;;;;5087901;28;20055;-75
2023/06/19 00:50:30;;;;;;;0.60;0.60;;;20.70;99.90;;;;;;5072243;28;20101;-75
2023/06/19 00:52:57;;;;;;;0.28;0.28;;;20.90;99.90;;;;;;5088458;28;20040;-74
2023/06/19 00:55:28;;;;;;;0.60;0.60;;;20.90;99.90;;;;;;5088887;28;20385;-74
2023/06/19 00:57:54;;;;;;;0.50;0.50;;;20.70;99.90;;;;;;5071897;28;20127;-75
2023/06/19 01:00:20;;;;;;;0.80;0.40;;;20.70;99.90;;;;;;5088623;28;20050;-75
2023/06/19 01:02:47;;;;;;;1.23;1.13;;;20.90;99.90;;;;;;5071668;28;20439;-75
2023/06/19 01:05:13;;;;;;;0.40;0.40;;;20.90;99.90;;;;;;5054630;28;20043;-75
2023/06/19 01:08:02;;;;;;;0.17;0.17;;;20.90;99.90;;;;;;5088541;28;20062;-76
2023/06/19 01:10:41;;;;;;;0.95;0.38;;;20.90;99.90;;;;;;5077571;28;20112;-75
2023/06/19 01:13:24;;;;;;;0.35;0.35;;;20.90;99.90;;;;;;5087983;28;20048;-75
2023/06/19 01:15:50;;;;;;;0.85;0.75;;;20.90;99.90;;;;;;5068372;28;20123;-76
2023/06/19 01:18:17;;;;;;;0.30;0.30;;;20.70;99.90;;;;;;5068655;28;20044;-76
2023/06/19 01:20:43;;;;;;;0.20;0.20;;;20.90;99.90;;;;;;5086074;28;20127;-74
2023/06/19 01:23:11;;;;;;;1.38;0.88;;;20.80;99.90;;;;;;5072495;28;20078;-76
2023/06/19 01:25:37;;;;;;;1.08;0.88;;;20.80;99.90;;;;;;5115192;27;20076;-74
2023/06/19 01:28:05;;;;;;;0.88;0.88;;;20.90;99.90;;;;;;5084716;28;20471;-75
2023/06/19 01:30:32;;;;;;;0.38;0.38;;;20.90;99.90;;;;;;5068143;28;20048;-75
2023/06/19 01:33:06;;;;;;;0.20;0.20;;;20.80;99.90;;;;;;5084273;28;20044;-74
2023/06/19 01:35:36;;;;;;;1.08;0.65;;;21.00;99.90;;;;;;5068982;28;20105;-75
2023/06/19 01:38:03;;;;;;;0.22;0.22;;;21.00;99.90;;;;;;5051359;28;20044;-74
2023/06/19 01:40:31;;;;;;;0.28;0.28;;;21.10;99.90;;;;;;5068135;28;20052;-74
2023/06/19 01:43:00;;;;;;;0.22;0.22;;;20.90;99.90;;;;;;5059978;28;20071;-74
2023/06/19 01:45:28;;;;;;;0.52;0.52;;;21.10;99.90;;;;;;5087921;28;20036;-74
2023/06/19 01:47:55;;;;;;;0.20;0.20;;;20.90;99.90;;;;;;5087919;28;20048;-75
2023/06/19 01:50:24;;;;;;;0.20;0.20;;;21.10;99.90;;;;;;5054409;28;20427;-74
2023/06/19 01:52:50;;;;;;;0.38;0.38;;;21.20;99.90;;;;;;5086969;28;20035;-74
2023/06/19 01:55:16;;;;;;;0.20;0.20;;;21.00;99.90;;;;;;5087418;28;20130;-74
2023/06/19 01:57:42;;;;;;;0.32;0.32;;;21.00;99.90;;;;;;5090330;28;20122;-74
2023/06/19 02:00:10;;;;;;;0.40;0.40;;;21.00;99.90;;;;;;5091365;28;20036;-74
2023/06/19 02:02:36;;;;;;;0.43;0.43;;;20.90;99.90;;;;;;5092067;28;20127;-75
2023/06/19 02:05:02;;;;;;;0.28;0.13;;;21.00;99.90;;;;;;5091028;28;20051;-75
2023/06/19 02:07:27;;;;;;;0.30;0.30;;;20.90;99.90;;;;;;5091436;28;20036;-74
2023/06/19 02:09:53;;;;;;;0.17;0.17;;;20.80;99.90;;;;;;5091510;28;20040;-74
2023/06/19 02:12:19;;;;;;;0.20;0.20;;;20.80;99.90;;;;;;5074717;28;20055;-74
2023/06/19 02:14:45;;;;;;;0.32;0.32;;;20.80;99.90;;;;;;5091525;28;20430;-74
2023/06/19 02:17:10;;;;;;;0.40;0.40;;;21.00;99.90;;;;;;5074415;28;20043;-74
2023/06/19 02:19:36;;;;;;;0.63;0.63;;;21.00;99.90;;;;;;5074708;28;20044;-73
2023/06/19 02:22:02;;;;;;;0.10;0.10;;;20.70;99.90;;;;;;5074535;28;20035;-75
2023/06/19 02:24:28;;;;;;;0.45;0.45;;;20.80;99.90;;;;;;5125868;27;20067;-75
2023/06/19 02:26:53;;;;;;;0.32;0.32;;;20.80;99.90;;;;;;5071283;28;20078;-74
2023/06/19 02:29:20;;;;;;;0.20;0.20;;;20.80;99.90;;;;;;5054565;28;20052;-74
2023/06/19 02:31:45;;;;;;;0.30;0.30;;;20.70;99.90;;;;;;5054846;28;20055;-74
2023/06/19 02:34:11;;;;;;;0.30;0.30;;;20.60;99.90;;;;;;5094864;28;20386;-74
2023/06/19 02:36:37;;;;;;;1.15;0.90;;;20.60;99.90;;;;;;5091277;28;20028;-74
2023/06/19 02:39:06;;;;;;;0.20;0.20;;;20.60;99.90;;;;;;5091275;28;20036;-74
2023/06/19 02:41:31;;;;;;;0.50;0.50;;;20.60;99.90;;;;;;5091426;28;20052;-74
2023/06/19 02:43:57;;;;;;;2.05;0.52;;;20.60;99.90;;;;;;5091116;28;20120;-74
2023/06/19 02:46:23;;;;;;;0.63;0.50;;;20.70;99.90;;;;;;5091038;28;20050;-73
2023/06/19 02:48:49;;;;;;;0.52;0.52;;;20.90;99.90;;;;;;5074126;28;20405;-75
2023/06/19 02:51:14;;;;;;;0.52;0.50;;;20.80;99.90;;;;;;5093969;28;20039;-74
2023/06/19 02:53:41;;;;;;;0.10;0.10;;;20.60;99.90;;;;;;5103546;28;20054;-74
2023/06/19 02:56:07;;;;;;;0.80;0.75;;;20.70;99.90;;;;;;5090422;28;20048;-75
2023/06/19 02:58:34;;;;;;;0.10;0.10;;;20.60;99.90;;;;;;5091326;28;20050;-75
2023/06/19 03:01:00;;;;;;;0.20;0.20;;;20.80;99.90;;;;;;5074155;28;20044;-75
2023/06/19 03:03:26;;;;;;;0.40;0.40;;;20.80;99.90;;;;;;5090593;28;20036;-73
2023/06/19 03:05:52;;;;;;;0.88;0.70;;;20.90;99.90;;;;;;5090956;28;20137;-75
2023/06/19 03:08:17;;;;;;;0.30;0.30;;;20.80;99.90;;;;;;5072721;28;20067;-75
2023/06/19 03:10:43;;;;;;;0.70;0.70;;;20.80;99.90;;;;;;5089923;28;20055;-74
2023/06/19 03:13:09;;;;;;;0.50;0.50;;;20.80;99.90;;;;;;5089944;28;20122;-74
2023/06/19 03:15:34;;;;;;;0.65;0.65;;;20.80;99.90;;;;;;5073697;28;20058;-75
2023/06/19 03:18:04;;;;;;;0.85;0.82;;;20.80;99.90;;;;;;5090566;28;20493;-73
2023/06/19 03:20:29;;;;;;;0.98;0.70;;;20.80;99.90;;;;;;5090599;28;20492;-75
2023/06/19 03:22:55;;;;;;;0.40;0.40;;;20.80;99.90;;;;;;5090273;28;20058;-74
2023/06/19 03:25:21;;;;;;;0.10;0.10;;;20.90;99.90;;;;;;5089833;28;20048;-74
2023/06/19 03:27:46;;;;;;;0.47;0.45;;;20.80;99.90;;;;;;5107265;28;20160;-75
2023/06/19 03:30:12;;;;;;;0.57;0.57;;;20.80;99.90;;;;;;5123986;27;20047;-75
2023/06/19 03:32:39;;;;;;;0.38;0.38;;;20.80;99.90;;;;;;5106588;28;20505;-75
2023/06/19 03:35:05;;;;;;;0.13;0.13;;;20.80;99.90;;;;;;5089893;28;20074;-74
2023/06/19 03:37:32;;;;;;;0.20;0.20;;;20.80;99.90;;;;;;5090130;28;20159;-75
2023/06/19 03:39:58;;;;;;;0.30;0.30;;;20.70;99.90;;;;;;5089928;28;20059;-74
2023/06/19 03:42:24;;;;;;;0.13;0.13;;;20.70;99.90;;;;;;5089479;28;20401;-75
2023/06/19 03:44:49;;;;;;;1.17;0.63;;;20.80;99.90;;;;;;5090055;28;20083;-75
2023/06/19 03:47:16;;;;;;;1.00;0.95;;;20.60;99.90;;;;;;5089835;28;20568;-74
2023/06/19 03:49:42;;;;;;;0.35;0.35;;;20.60;99.90;;;;;;5090240;28;20075;-75
2023/06/19 03:52:08;;;;;;;1.27;1.17;;;20.70;99.90;;;;;;5089671;28;20082;-74
2023/06/19 03:54:33;;;;;;;1.80;0.63;;;20.60;99.90;;;;;;5091100;28;20054;-75
2023/06/19 03:56:59;;;;;;;1.13;0.43;;;20.50;99.90;;;;;;5090857;28;20123;-73
2023/06/19 03:59:25;;;;;;;0.65;0.30;;;20.60;99.90;;;;;;5089612;28;20040;-75
2023/06/19 04:01:51;;;;;;;1.00;0.65;;;20.70;99.90;;;;;;5089923;28;20044;-75
2023/06/19 04:04:17;;;;;;;0.45;0.45;;;20.70;99.90;;;;;;5072193;28;20051;-74
2023/06/19 04:06:42;;;;;;;1.60;0.93;;;20.80;99.90;;;;;;5073320;28;20393;-74
2023/06/19 04:09:08;;;;;;;0.28;0.28;;;20.80;99.90;;;;;;5089189;28;20477;-75
2023/06/19 04:11:34;;;;;;;0.45;0.38;;;20.90;99.90;;;;;;5090253;28;20072;-74
2023/06/19 04:14:00;;;;;;;0.73;0.73;;;21.00;99.90;;;;;;5090093;28;20052;-74
2023/06/19 04:16:25;;;;;;;1.58;0.75;;;21.00;99.90;;;;;;5089145;28;20097;-75
2023/06/19 04:18:51;;;;;;;0.70;0.70;;;21.10;99.90;;;;;;5055830;28;20044;-74
2023/06/19 04:21:17;;;;;;;0.50;0.50;;;21.20;99.90;;;;;;5071517;28;20083;-75
2023/06/19 04:23:42;;;;;;;0.77;0.73;;;21.20;99.90;;;;;;5089664;28;20051;-74
2023/06/19 04:26:08;;;;;;;1.45;0.75;;;21.30;99.90;;;;;;5085480;28;20463;-74
2023/06/19 04:28:34;;;;;;;1.05;0.95;;;21.30;99.90;;;;;;5068895;28;20037;-76
2023/06/19 04:31:00;;;;;;;0.82;0.82;;;21.30;99.90;;;;;;5103285;28;20158;-76
2023/06/19 04:33:29;;;;;;;0.43;0.43;;;21.40;99.90;;;;;;5069328;28;20052;-74
2023/06/19 04:35:55;;;;;;;0.98;0.93;;;21.20;99.90;;;;;;5089468;28;20036;-75
2023/06/19 04:38:23;;;;;;;1.10;1.00;;;21.30;99.90;;;;;;5089190;28;20497;-73
2023/06/19 04:40:53;;;;;;;0.98;0.98;;;21.40;99.90;;;;;;5072328;28;20056;-74
2023/06/19 04:43:19;;;;;;;0.50;0.50;;;21.20;99.90;;;;;;5068403;28;20395;-74
2023/06/19 04:45:45;;;;;;;0.55;0.52;;;21.30;99.90;;;;;;5120015;27;20042;-75
2023/06/19 04:48:11;;;;;;;1.27;1.05;;;21.30;99.90;;;;;;5088747;28;20440;-75
2023/06/19 04:50:37;;;;;;;0.57;0.57;;;21.20;99.90;;;;;;5088966;28;20036;-76
2023/06/19 04:53:03;;;;;;;0.20;0.20;;;21.40;99.90;;;;;;5072102;28;20400;-76
2023/06/19 04:55:28;;;;;;;0.38;0.38;;;21.20;99.90;;;;;;5088187;28;20127;-76
2023/06/19 04:57:55;;;;;;;0.95;0.85;;;21.40;99.90;;;;;;5088979;28;20050;-75
2023/06/19 05:00:23;;;;;;;0.28;0.28;;;21.30;99.90;;;;;;5071422;28;20040;-75
2023/06/19 05:02:49;;;;;;;0.30;0.30;;;21.20;99.90;;;;;;5071978;28;20090;-74
2023/06/19 05:05:16;;;;;;;0.47;0.47;;;21.30;99.90;;;;;;5071595;28;20046;-74
2023/06/19 05:07:42;;;;;;;0.55;0.55;;;21.40;99.90;;;;;;5089026;28;20097;-75
2023/06/19 05:10:08;;;;;;;0.75;0.75;;;21.30;99.90;;;;;;5072327;28;20072;-75
2023/06/19 05:12:37;;;;;;;1.58;1.00;;;21.40;99.90;;;;;;5072396;28;20135;-75
2023/06/19 05:15:03;;;;;;;0.70;0.63;;;21.20;99.90;;;;;;5088935;28;20039;-78
2023/06/19 05:17:29;;;;;;;0.20;0.20;;;21.30;99.90;;;;;;5087933;28;20044;-75
2023/06/19 05:19:54;;;;;;;0.47;0.28;;;21.30;99.90;;;;;;5071956;28;20032;-75
2023/06/19 05:22:21;;;;;;;0.50;0.50;;;21.30;99.90;;;;;;5071472;28;20035;-74
2023/06/19 05:24:47;;;;;;;2.60;0.63;;;21.20;99.90;;;;;;5088099;28;20161;-76
2023/06/19 05:27:13;;;;;;;1.42;1.02;;;21.20;99.90;;;;;;5071167;28;20081;-74
2023/06/19 05:29:39;;;;;;;0.30;0.30;;;21.20;99.90;;;;;;5122609;28;20044;-76
2023/06/19 05:32:05;;;;;;;0.68;0.68;;;21.20;99.90;;;;;;5108851;27;20060;-75
2023/06/19 05:34:30;;;;;;;0.85;0.85;;;21.20;99.90;;;;;;5078149;28;20397;-77
2023/06/19 05:36:58;;;;;;;0.20;0.20;;;21.30;99.90;;;;;;5095182;28;20127;-74
2023/06/19 05:39:23;;;;;;;0.55;0.40;;;21.20;99.90;;;;;;5095032;28;20044;-75
2023/06/19 05:41:49;;;;;;;0.95;0.70;;;21.20;99.90;;;;;;5077957;28;20561;-75
2023/06/19 05:44:16;;;;;;;0.55;0.38;;;21.30;99.90;;;;;;5094469;28;20069;-74
2023/06/19 05:46:42;;;;;;;0.95;0.90;;;21.20;99.90;;;;;;5094805;28;20485;-77
2023/06/19 05:49:08;;;;;;;0.28;0.28;;;21.50;99.90;;;;;;5078716;28;20393;-76
2023/06/19 05:51:34;;;;;;;0.30;0.30;;;21.30;99.90;;;;;;5094828;28;20046;-77
2023/06/19 05:54:03;;;;;;;0.98;0.95;;;21.50;99.90;;;;;;5078318;28;20122;-74
2023/06/19 05:56:33;;;;;;;0.45;0.45;;;21.60;99.90;;;;;;5095266;28;20048;-75
2023/06/19 05:58:59;;;;;;;0.90;0.90;;;21.80;99.90;;;;;;5061498;28;20122;-73
2023/06/19 06:01:27;;;;;;;0.20;0.20;;;21.80;99.90;;;;;;5077266;28;20069;-74
2023/06/19 06:03:54;;;;;;;0.70;0.70;;;22.20;99.90;;;;;;5061619;28;20048;-76
2023/06/19 06:06:20;;;;;;;0.30;0.30;;;22.20;99.90;;;;;;5074226;28;20048;-76
2023/06/19 06:08:45;;;;;;;0.30;0.30;;;22.20;99.90;;;;;;5074570;28;20118;-76
2023/06/19 06:11:11;;;;;;;0.65;0.65;;;22.00;99.90;;;;;;5074491;28;20371;-75
2023/06/19 06:13:37;;;;;;;0.70;0.70;;;22.00;99.90;;;;;;5059434;28;20047;-75
2023/06/19 06:16:02;;;;;;;0.47;0.47;;;22.00;99.90;;;;;;5078503;28;20090;-77
2023/06/19 06:18:28;;;;;;;0.70;0.70;;;21.90;99.90;;;;;;5078500;28;20097;-77
2023/06/19 06:20:54;;;;;;;1.08;1.08;;;21.90;99.90;;;;;;5077770;28;20054;-75
2023/06/19 06:23:19;;;;;;;0.45;0.45;;;21.80;99.90;;;;;;5094101;28;20108;-74
2023/06/19 06:25:45;;;;;;;0.28;0.28;;;21.90;99.90;;;;;;5074317;28;20077;-75
2023/06/19 06:28:11;;;;;;;0.60;0.60;;;22.00;99.90;;;;;;5109344;28;20044;-76
2023/06/19 06:30:38;;;;;;;0.40;0.40;;;22.00;99.90;;;;;;5108841;28;20040;-76
2023/06/19 06:33:04;;;;;;;0.20;0.20;;;22.10;99.90;;;;;;5091904;28;20067;-74
2023/06/19 06:35:30;;;;;;;0.50;0.38;;;22.10;99.90;;;;;;5092371;28;20075;-75
2023/06/19 06:37:56;;;;;;;0.90;0.88;;;22.00;99.90;;;;;;5078268;28;20039;-76
2023/06/19 06:40:21;;;;;;;2.13;2.03;;;22.10;99.90;;;;;;5094375;28;20044;-75
2023/06/19 06:42:47;;;;;;;1.05;0.68;;;22.00;99.90;;;;;;5076522;28;20112;-76
2023/06/19 06:45:13;;;;;;;0.73;0.73;;;22.00;99.90;;;;;;5074288;28;20048;-76
2023/06/19 06:47:39;;;;;;;0.85;0.82;;;22.00;99.90;;;;;;5091613;28;20052;-76
2023/06/19 06:50:06;;;;;;;1.88;1.23;;;22.00;99.90;;;;;;5074819;28;20127;-77
2023/06/19 06:52:32;;;;;;;0.25;0.25;;;22.10;99.90;;;;;;5088420;28;20036;-75
2023/06/19 06:54:58;;;;;;;3.00;1.00;;;22.10;99.90;;;;;;5093082;28;20047;-75
2023/06/19 06:57:24;;;;;;;1.45;0.75;;;21.90;99.90;;;;;;5074168;28;20082;-75
2023/06/19 06:59:50;;;;;;;1.10;1.00;;;21.90;99.90;;;;;;5090923;28;20386;-75
2023/06/19 07:02:16;;;;;;;0.95;0.90;;;21.70;99.90;;;;;;5057256;28;20047;-74
2023/06/19 07:04:42;;;;;;;0.88;0.88;;;21.70;99.90;;;;;;5073880;28;20036;-75
2023/06/19 07:07:08;;;;;;;0.20;0.20;;;21.70;99.90;;;;;;5091078;28;20073;-76
2023/06/19 07:09:34;;;;;;;0.55;0.55;;;21.60;99.90;;;;;;5108124;27;20788;-75
2023/06/19 07:12:04;;;;;;;2.38;0.82;;;21.70;99.90;;;;;;5090696;28;20058;-76
2023/06/19 07:14:30;;;;;;;0.70;0.70;;;21.60;99.90;;;;;;5074387;28;20522;-74
2023/06/19 07:16:56;;;;;;;1.30;1.17;;;21.70;99.90;;;;;;5091034;28;20036;-74
2023/06/19 07:19:21;;;;;;;1.77;0.50;;;21.60;99.90;;;;;;5073534;28;20093;-76
2023/06/19 07:21:49;;;;;;;1.42;1.27;;;21.40;99.90;;;;;;5091443;28;20113;-75
2023/06/19 07:24:15;;;;;;;1.70;1.60;;;21.40;99.90;;;;;;5074358;28;20162;-77
2023/06/19 07:26:40;;;;;;;0.63;0.63;;;21.20;99.90;;;;;;5090109;28;20466;-77
2023/06/19 07:29:06;;;;;;;0.73;0.73;;;21.00;99.90;;;;;;5090284;28;20051;-75
2023/06/19 07:31:32;;;;;;;1.25;1.15;;;20.80;99.90;;;;;;5073435;28;20501;-76
2023/06/19 07:33:57;;;;;;;0.75;0.60;;;20.80;99.90;;;;;;5124371;27;20405;-75
2023/06/19 07:36:23;;;;;;;0.30;0.30;;;20.60;99.90;;;;;;5073503;28;20101;-74
2023/06/19 07:38:49;;;;;;;0.80;0.70;;;20.50;99.90;;;;;;5090338;28;20036;-77
2023/06/19 07:41:14;;;;;;;2.65;1.52;;;20.60;99.90;;;;;;5073236;28;20051;-75
2023/06/19 07:43:40;;;;;;;;;;;20.50;99.90;;;;;;5090335;28;20082;-74
2023/06/19 07:46:06;;;;;;;2.15;1.48;;;20.30;99.90;;;;;;5090683;28;19959;-74
2023/06/19 07:48:31;;;;;;;1.55;0.88;;;20.40;99.90;;;;;;5090000;28;20130;-75
2023/06/19 07:50:57;;;;;;;;;;;20.30;99.90;;;;;;5073759;28;20055;-74
2023/06/19 07:53:22;;;;;;;0.90;0.85;;;20.00;99.90;;;;;;5089987;28;20019;-75
2023/06/19 07:55:48;;;;;;;;;;;20.20;99.90;;;;;;5056929;28;20426;-74
2023/06/19 07:58:14;;;;;;;0.80;0.80;;;20.10;99.90;;;;;;5090670;28;19959;-76
2023/06/19 08:00:39;;;;;;;;;;;20.30;99.90;;;;;;5090190;28;20493;-76
2023/06/19 08:03:05;;;;;;;3.65;1.55;;;20.30;99.90;;;;;;5089636;28;19923;-75
2023/06/19 08:05:31;;;;;;;0.60;0.60;;;20.30;99.90;;;;;;5072531;28;20044;-76
2023/06/19 08:07:59;;;;;;;4.82;1.52;;;20.30;99.90;;;;;;5073521;28;20044;-74
2023/06/19 08:10:25;;;;;;;1.92;1.73;;;20.70;99.90;;;;;;5076792;28;20044;-75
2023/06/19 08:12:50;;;;;;;1.83;1.70;;;20.50;99.90;;;;;;5089614;28;20038;-78
2023/06/19 08:15:16;;;;;;;;;;;20.70;99.90;;;;;;5073398;28;20028;-75
2023/06/19 08:17:42;;;;;;;1.55;1.42;;;20.80;99.90;;;;;;5073153;28;19919;-76
2023/06/19 08:20:09;;;;;;;1.75;1.40;;;20.80;99.90;;;;;;5089561;28;20051;-77
2023/06/19 08:22:35;;;;;;;0.90;0.90;;;21.10;99.90;;;;;;5072831;28;20035;-74
2023/06/19 08:25:01;;;;;;;0.85;0.70;;;21.10;99.90;;;;;;5089830;28;20090;-76
2023/06/19 08:27:27;;;;;;;0.30;0.30;;;21.00;99.90;;;;;;5089922;28;20047;-76
2023/06/19 08:29:53;;;;;;;1.58;0.73;;;20.90;99.90;;;;;;5124544;27;20039;-77
2023/06/19 08:32:19;;;;;;;0.50;0.50;;;21.10;99.90;;;;;;5072880;28;20318;-74
2023/06/19 08:34:45;;;;;;;1.75;0.77;;;21.00;99.90;;;;;;5091112;28;20043;-75
2023/06/19 08:37:11;;;;;;;0.50;0.50;;;21.20;99.90;;;;;;5090118;28;20036;-76
2023/06/19 08:39:38;;;;;;;1.00;0.98;;;21.40;99.90;;;;;;5089512;28;20048;-76
2023/06/19 08:42:08;;;;;;;2.45;1.67;;;21.50;99.90;;;;;;5056700;28;20476;-76
2023/06/19 08:44:35;;;;;;;0.45;0.45;;;21.40;99.90;;;;;;5073271;28;20860;-76
2023/06/19 08:47:03;;;;;;;0.85;0.85;;;21.80;99.90;;;;;;5090112;28;20416;-76
2023/06/19 08:49:34;;;;;;;1.88;1.65;;;21.90;99.90;;;;;;5089782;28;20140;-75
2023/06/19 08:52:01;;;;;;;1.33;0.50;;;22.10;99.90;;;;;;5089487;28;20371;-76
2023/06/19 08:54:26;;;;;;;2.10;1.10;;;21.80;99.90;;;;;;5073844;28;20442;-76
2023/06/19 08:56:53;;;;;;;1.15;0.73;;;21.90;99.90;;;;;;5089364;28;20082;-78
2023/06/19 08:59:19;;;;;;;0.45;0.45;;;21.90;99.90;;;;;;5089623;28;20056;-75
2023/06/19 09:01:53;;;;;;;0.60;0.60;;;21.80;99.90;;;;;;5056749;28;20048;-78
2023/06/19 09:04:20;;;;;;;0.82;0.82;;;21.50;99.90;;;;;;5089567;28;20048;-75
2023/06/19 09:06:54;;;;;;;0.70;0.52;;;21.80;99.90;;;;;;5089015;28;20131;-76
2023/06/19 09:09:21;;;;;;;1.15;1.15;;;21.60;99.90;;;;;;5073166;28;20086;-76
2023/06/19 09:12:12;;;;;;;1.38;0.77;;;21.70;99.90;;;;;;5090438;28;20453;-75
2023/06/19 09:14:40;;;;;;;1.23;1.23;;;21.70;99.90;;;;;;5089462;28;20043;-74
2023/06/19 09:17:10;;;;;;;0.88;0.88;;;21.80;99.90;;;;;;5088938;28;20049;-76
2023/06/19 09:19:36;;;;;;;0.20;0.20;;;22.00;99.90;;;;;;5072354;28;20105;-76
2023/06/19 09:22:02;;;;;;;2.70;0.50;;;22.30;99.90;;;;;;5072188;28;20048;-76
2023/06/19 09:24:39;;;;;;;0.55;0.55;;;22.60;99.90;;;;;;5055931;28;20044;-78
2023/06/19 09:27:12;;;;;;;0.40;0.40;;;22.80;99.90;;;;;;5089311;28;20058;-76
2023/06/19 09:29:40;;;;;;;0.30;0.30;;;23.00;99.90;;;;;;5122695;27;20044;-77
2023/06/19 09:32:16;;;;;;;0.82;0.60;;;23.00;99.90;;;;;;5088719;28;20075;-76
2023/06/19 09:34:42;;;;;;;0.90;0.90;;;22.70;99.90;;;;;;5088958;28;20044;-74
2023/06/19 09:37:09;;;;;;;0.20;0.20;;;22.90;99.90;;;;;;5072737;28;20740;-75
2023/06/19 09:39:37;;;;;;;0.40;0.40;;;22.70;99.90;;;;;;5088664;28;20078;-75
2023/06/19 09:42:06;;;;;;;0.25;0.25;;;22.60;99.90;;;;;;5087651;28;20473;-74
2023/06/19 09:44:36;;;;;;;0.60;0.60;;;22.70;99.90;;;;;;5088767;28;20067;-77
2023/06/19 09:47:09;;;;;;;2.40;1.55;;;22.40;99.90;;;;;;5092072;28;20461;-78
2023/06/19 09:49:36;;;;;;;1.02;1.00;;;22.30;99.90;;;;;;5071253;28;20040;-75
2023/06/19 09:52:02;;;;;;;0.50;0.50;;;22.00;99.90;;;;;;5072146;28;20430;-74
2023/06/19 09:54:29;;;;;;;1.00;0.75;;;21.90;99.90;;;;;;5072105;28;20052;-76
2023/06/19 09:56:58;;;;;;;1.05;0.73;;;21.70;99.90;;;;;;5088283;28;20096;-77
2023/06/19 09:59:25;;;;;;;0.90;0.77;;;21.60;99.90;;;;;;5051628;28;20040;-75
2023/06/19 10:01:51;;;;;;;0.82;0.57;;;21.70;99.90;;;;;;5067815;28;20052;-74
2023/06/19 10:04:18;;;;;;;0.55;0.55;;;21.90;99.90;;;;;;5051056;28;20509;-76
2023/06/19 10:06:45;;;;;;;1.55;1.10;;;21.80;99.90;;;;;;5035028;28;20563;-75
2023/06/19 10:09:11;;;;;;;0.57;0.57;;;22.00;99.90;;;;;;5051454;28;20485;-76
2023/06/19 10:11:52;;;;;;;6.82;0.98;;;22.00;99.90;;;;;;5034774;28;20041;-77
2023/06/19 10:14:22;;;;;;;1.50;1.10;;;22.10;99.90;;;;;;5068646;28;20445;-76
2023/06/19 10:16:48;;;;;;;1.35;1.25;;;22.00;99.90;;;;;;5083538;28;20148;-76
2023/06/19 10:19:16;;;;;;;1.15;0.70;;;21.90;99.90;;;;;;5090173;28;20048;-75
2023/06/19 10:21:45;;;;;;;3.72;1.83;;;21.70;99.90;;;;;;5091691;28;20119;-76
2023/06/19 10:24:19;;;;;;;0.63;0.63;;;21.50;99.90;;;;;;5058289;28;20098;-75
2023/06/19 10:27:00;;;;;;;0.50;0.50;;;21.50;99.90;;;;;;5074705;28;20136;-74
2023/06/19 10:29:27;;;;;;;1.00;0.73;;;21.40;99.90;;;;;;5092056;28;20041;-77
2023/06/19 10:31:54;;;;;;;0.47;0.38;;;21.30;99.90;;;;;;5091548;28;20052;-75
2023/06/19 10:34:19;;;;;;;0.68;0.68;;;21.20;99.90;;;;;;5058586;28;20059;-75
2023/06/19 10:36:45;;;;;;;0.57;0.55;;;21.20;99.90;;;;;;5075124;28;20040;-75
2023/06/19 10:39:11;;;;;;;0.55;0.55;;;21.20;99.90;;;;;;5091972;28;20044;-76
2023/06/19 10:41:40;;;;;;;0.80;0.80;;;21.20;99.90;;;;;;5058390;28;20472;-75
2023/06/19 10:44:12;;;;;;;0.88;0.88;;;21.20;99.90;;;;;;5091300;28;20044;-75
2023/06/19 10:46:38;;;;;;;1.25;1.13;;;21.40;99.90;;;;;;5091906;28;20068;-79
2023/06/19 10:49:07;;;;;;;1.55;1.08;;;21.90;99.90;;;;;;5074432;28;20044;-76
2023/06/19 10:51:41;;;;;;;1.30;0.90;;;22.00;99.90;;;;;;5058263;28;20481;-76
2023/06/19 10:54:07;;;;;;;1.50;1.25;;;22.20;99.90;;;;;;5091571;28;20040;-75
2023/06/19 10:56:34;;;;;;;1.40;1.30;;;22.30;99.90;;;;;;5074827;28;20028;-75
2023/06/19 10:59:11;;;;;;;2.92;1.70;;;22.30;99.90;;;;;;5091563;28;20047;-76
2023/06/19 11:01:47;;;;;;;1.52;1.42;;;22.60;99.90;;;;;;5091620;28;20065;-75
2023/06/19 11:04:14;;;;;;;0.80;0.80;;;22.70;99.90;;;;;;5091543;28;20085;-76
2023/06/19 11:06:42;;;;;;;0.35;0.35;;;22.90;99.90;;;;;;5091632;28;20075;-76
2023/06/19 11:09:09;;;;;;;0.57;0.43;;;23.00;99.90;;;;;;5075201;28;20059;-75
2023/06/19 11:11:42;;;;;;;0.85;0.60;;;22.90;99.90;;;;;;5092354;28;20039;-76
2023/06/19 11:14:09;;;;;;;0.65;0.65;;;22.80;99.90;;;;;;5092013;28;20385;-76
2023/06/19 11:16:37;;;;;;;1.75;0.73;;;22.80;99.90;;;;;;5058702;28;20036;-75
2023/06/19 11:19:03;;;;;;;0.68;0.65;;;23.00;99.90;;;;;;5091936;28;20044;-77
2023/06/19 11:21:37;;;;;;;0.63;0.63;;;23.20;99.90;;;;;;5074935;28;20386;-74
2023/06/19 11:24:10;;;;;;;1.25;1.23;;;23.10;99.90;;;;;;5092139;28;20367;-75
2023/06/19 11:26:43;;;;;;;2.05;1.45;;;23.10;99.90;;;;;;5126041;27;20076;-75
2023/06/19 11:29:26;;;;;;;2.75;1.98;;;23.00;99.90;;;;;;5090828;28;20052;-76
2023/06/19 11:32:08;;;;;;;4.13;1.83;;;23.30;99.90;;;;;;5091325;28;20047;-74
2023/06/19 11:34:36;;;;;;;3.88;1.83;;;23.60;99.90;;;;;;5074812;28;20043;-75
2023/06/19 11:37:16;;;;;;;1.58;1.38;;;23.70;99.90;;;;;;5091739;28;20390;-75
2023/06/19 11:39:46;;;;;;;0.50;0.47;;;23.60;99.90;;;;;;5091699;28;20051;-77
2023/06/19 11:42:11;;;;;;;0.82;0.82;;;23.50;99.90;;;;;;5075301;28;20428;-77
2023/06/19 11:44:56;;;;;;;1.20;1.17;;;23.50;99.90;;;;;;5092706;28;20048;-77
2023/06/19 11:47:23;;;;;;;0.60;0.60;;;23.70;99.90;;;;;;5092222;28;20079;-77
2023/06/19 11:49:50;;;;;;;1.38;0.85;;;24.00;99.90;;;;;;5070787;28;20056;-77
2023/06/19 11:52:16;;;;;;;0.88;0.85;;;24.20;99.90;;;;;;5070959;28;20117;-76
2023/06/19 11:54:42;;;;;;;1.33;1.13;;;24.20;99.90;;;;;;5070574;28;20095;-75
2023/06/19 11:57:11;;;;;;;0.50;0.50;;;24.10;99.90;;;;;;5071472;28;20040;-77
2023/06/19 11:59:39;;;;;;;1.48;1.38;;;24.10;99.90;;;;;;5071835;28;20066;-78
2023/06/19 12:02:06;;;;;;;1.33;0.90;;;24.10;99.90;;;;;;5071494;28;20045;-77
2023/06/19 12:04:32;;;;;;;1.90;1.02;;;23.90;99.90;;;;;;5087575;28;20033;-76
2023/06/19 12:06:58;;;;;;;1.10;1.05;;;23.80;99.90;;;;;;5070578;28;20040;-77
2023/06/19 12:09:24;;;;;;;0.50;0.45;;;23.90;99.90;;;;;;5071713;28;20051;-76
2023/06/19 12:11:50;;;;;;;2.45;1.40;;;24.00;99.90;;;;;;5105702;28;20387;-77
2023/06/19 12:14:16;;;;;;;1.67;1.58;;;24.00;99.90;;;;;;5054320;28;20036;-79
2023/06/19 12:16:41;;;;;;;1.35;1.25;;;23.90;99.90;;;;;;5071052;28;20047;-76
2023/06/19 12:19:07;;;;;;;0.57;0.57;;;23.70;99.90;;;;;;5087008;28;20117;-77
2023/06/19 12:21:33;;;;;;;1.88;1.77;;;23.60;99.90;;;;;;5053920;28;20044;-75
2023/06/19 12:23:59;;;;;;;1.20;1.10;;;23.50;99.90;;;;;;5069682;28;20091;-75
2023/06/19 12:26:25;;;;;;;2.15;1.48;;;23.60;99.90;;;;;;5070206;28;20056;-76
2023/06/19 12:28:51;;;;;;;2.03;1.73;;;23.80;99.90;;;;;;5069705;28;20049;-75
2023/06/19 12:31:18;;;;;;;1.42;1.33;;;23.90;99.90;;;;;;5069943;28;20123;-76
2023/06/19 12:33:44;;;;;;;0.88;0.88;;;24.10;99.90;;;;;;5104068;28;20102;-76
2023/06/19 12:36:16;;;;;;;0.85;0.85;;;24.20;99.90;;;;;;5070546;28;20370;-76
2023/06/19 12:38:42;;;;;;;2.05;1.95;;;24.10;99.90;;;;;;5070780;28;20490;-76
2023/06/19 12:41:08;;;;;;;1.50;1.40;;;24.00;99.90;;;;;;5069501;28;20079;-76
2023/06/19 12:43:34;;;;;;;0.77;0.77;;;24.20;99.90;;;;;;5107195;28;20058;-77
2023/06/19 12:46:00;;;;;;;0.70;0.70;;;24.40;99.90;;;;;;5089901;28;20445;-78
2023/06/19 12:48:27;;;;;;;0.70;0.70;;;24.60;99.90;;;;;;5090781;28;20040;-76